Time;durP1;ratioP1;P1;durP2;ratioP2;P2;SDS_P1;SDS_P2;PMS_P1;PMS_P2;Temp;Humidity;BMP_temperature;BMP_pressure;BME280_temperature;BME280_humidity;BME280_pressure;Samples;Min_cycle;Max_cycle;Signal;HPM_P1;HPM_P2
2023/04/08 00:01:23;;;;;;;9.30;8.60;;;;;;;10.68;52.33;99707.72;5070371;28;20216;-69
2023/04/08 00:03:50;;;;;;;8.90;8.17;;;;;;;10.68;51.80;99710.38;5054662;28;20197;-69
2023/04/08 00:06:17;;;;;;;10.53;9.60;;;;;;;10.63;51.50;99696.88;5052524;28;20198;-70
2023/04/08 00:08:43;;;;;;;10.27;9.43;;;;;;;10.75;50.97;99721.91;5052289;28;20247;-69
2023/04/08 00:11:12;;;;;;;11.00;10.07;;;;;;;10.37;52.53;99685.97;5052306;28;20225;-69
2023/04/08 00:13:38;;;;;;;10.27;9.33;;;;;;;10.67;52.42;99714.06;5051877;28;20199;-69
2023/04/08 00:16:05;;;;;;;10.27;9.47;;;;;;;10.70;52.60;99716.31;5051955;28;20689;-69
2023/04/08 00:18:32;;;;;;;10.90;9.97;;;;;;;10.70;52.37;99708.34;5051958;28;20189;-69
2023/04/08 00:20:58;;;;;;;10.80;9.80;;;;;;;10.69;53.01;99714.69;5051421;28;20229;-70
2023/04/08 00:23:25;;;;;;;10.47;9.67;;;;;;;10.69;52.22;99712.84;5052435;28;20194;-69
2023/04/08 00:25:52;;;;;;;10.73;9.83;;;;;;;10.73;52.81;99718.59;5060228;28;20257;-70
2023/04/08 00:28:20;;;;;;;10.37;9.37;;;;;;;10.63;53.01;99724.22;5072135;28;20293;-70
2023/04/08 00:30:46;;;;;;;10.23;9.43;;;;;;;10.46;52.49;99722.84;5068402;28;20196;-71
2023/04/08 00:33:13;;;;;;;10.17;9.37;;;;;;;10.47;53.59;99719.16;5071971;28;20193;-72
2023/04/08 00:35:40;;;;;;;10.97;10.07;;;;;;;10.52;53.66;99718.63;5071736;28;20657;-70
2023/04/08 00:38:07;;;;;;;10.27;9.37;;;;;;;10.55;53.11;99710.28;5071684;28;20659;-70
2023/04/08 00:40:34;;;;;;;13.47;10.90;;;;;;;10.59;52.85;99719.50;5071501;28;20826;-70
2023/04/08 00:43:01;;;;;;;10.90;9.93;;;;;;;10.55;53.49;99712.94;5071640;28;20409;-69
2023/04/08 00:45:33;;;;;;;11.70;10.70;;;;;;;10.49;53.24;99700.41;5071510;28;20197;-69
2023/04/08 00:48:00;;;;;;;12.60;11.50;;;;;;;10.48;54.16;99720.00;5071625;28;20650;-70
2023/04/08 00:50:26;;;;;;;11.63;10.63;;;;;;;10.11;55.67;99718.41;5071411;28;20674;-70
2023/04/08 00:52:53;;;;;;;13.50;11.37;;;;;;;10.24;55.92;99728.31;5072036;28;20241;-70
2023/04/08 00:55:20;;;;;;;13.30;11.73;;;;;;;10.09;57.15;99732.88;5071390;28;20242;-70
2023/04/08 00:57:47;;;;;;;12.70;11.40;;;;;;;10.14;57.57;99725.16;5071815;28;20188;-70
2023/04/08 01:00:15;;;;;;;12.97;11.93;;;;;;;10.14;57.56;99723.31;5068259;28;20262;-70
2023/04/08 01:02:51;;;;;;;13.50;12.20;;;;;;;10.06;58.88;99725.28;5071726;28;20188;-70
2023/04/08 01:05:25;;;;;;;13.27;12.07;;;;;;;10.10;60.29;99748.59;5071396;28;20222;-70
2023/04/08 01:07:52;;;;;;;12.50;11.43;;;;;;;10.07;61.33;99746.34;5070470;28;20180;-70
2023/04/08 01:10:22;;;;;;;13.53;12.37;;;;;;;9.88;64.66;99744.22;5071297;28;20669;-70
2023/04/08 01:12:54;;;;;;;14.17;12.77;;;;;;;9.70;66.45;99742.97;5071809;28;20196;-70
2023/04/08 01:15:21;;;;;;;14.30;12.77;;;;;;;9.45;67.94;99749.56;5071285;28;20642;-70
2023/04/08 01:17:53;;;;;;;16.07;13.47;;;;;;;9.61;68.03;99752.03;5071918;28;20196;-69
2023/04/08 01:20:20;;;;;;;15.93;14.20;;;;;;;9.53;69.10;99754.78;5071107;28;20700;-69
2023/04/08 01:23:02;;;;;;;14.97;13.53;;;;;;;9.51;69.47;99751.47;5071254;28;20200;-68
2023/04/08 01:25:32;;;;;;;14.33;13.03;;;;;;;9.48;69.78;99746.53;5071098;28;20264;-68
2023/04/08 01:28:01;;;;;;;14.83;13.43;;;;;;;9.44;70.84;99745.25;5071427;28;20227;-69
2023/04/08 01:30:30;;;;;;;15.50;14.00;;;;;;;9.46;70.78;99745.88;5070051;28;20230;-68
2023/04/08 01:32:59;;;;;;;14.80;12.93;;;;;;;9.14;72.69;99744.41;5075389;28;20192;-68
2023/04/08 01:35:26;;;;;;;14.53;13.03;;;;;;;9.32;72.92;99752.03;5075117;28;20188;-68
2023/04/08 01:37:55;;;;;;;15.97;14.27;;;;;;;9.18;73.52;99735.09;5075142;28;20191;-69
2023/04/08 01:40:21;;;;;;;15.80;14.20;;;;;;;9.15;74.21;99750.53;5074890;28;20312;-69
2023/04/08 01:42:50;;;;;;;15.13;13.60;;;;;;;9.09;74.63;99748.59;5075101;28;20245;-69
2023/04/08 01:45:19;;;;;;;14.93;13.57;;;;;;;9.14;74.79;99754.16;5074900;28;20191;-69
2023/04/08 01:47:47;;;;;;;15.83;14.23;;;;;;;9.21;74.72;99760.41;5074990;28;20577;-69
2023/04/08 01:50:15;;;;;;;15.43;13.93;;;;;;;9.24;74.52;99760.06;5074538;28;20684;-70
2023/04/08 01:52:44;;;;;;;15.83;14.30;;;;;;;9.06;76.02;99747.13;5074953;28;20195;-72
2023/04/08 01:55:11;;;;;;;16.13;14.47;;;;;;;9.28;74.93;99766.63;5074491;28;20255;-72
2023/04/08 01:57:41;;;;;;;16.00;13.33;;;;;;;9.32;75.33;99762.63;5074828;28;20665;-70
2023/04/08 02:00:11;;;;;;;16.70;15.10;;;;;;;9.26;76.57;99768.63;5065878;28;20604;-71
2023/04/08 02:02:42;;;;;;;18.33;15.43;;;;;;;9.35;75.90;99772.88;5054717;28;20192;-70
2023/04/08 02:05:09;;;;;;;16.33;14.73;;;;;;;9.04;77.56;99769.50;5054603;28;20243;-70
2023/04/08 02:07:36;;;;;;;16.47;14.97;;;;;;;9.06;77.61;99759.53;5054333;28;20261;-73
2023/04/08 02:10:03;;;;;;;19.20;15.77;;;;;;;9.14;77.83;99773.56;5054732;28;20196;-70
2023/04/08 02:12:30;;;;;;;19.03;15.30;;;;;;;9.17;77.31;99770.56;5054317;28;20665;-70
2023/04/08 02:14:57;;;;;;;17.03;15.23;;;;;;;9.20;78.35;99772.81;5054467;28;20271;-70
2023/04/08 02:17:32;;;;;;;18.13;16.23;;;;;;;9.03;78.83;99771.31;5054487;28;20288;-70
2023/04/08 02:20:07;;;;;;;18.60;16.53;;;;;;;9.02;79.53;99771.50;5054046;28;20650;-70
2023/04/08 02:22:41;;;;;;;18.93;15.80;;;;;;;8.92;80.47;99768.28;5054237;28;20246;-70
2023/04/08 02:25:11;;;;;;;17.90;15.77;;;;;;;9.01;80.58;99775.16;5056669;28;20185;-71
2023/04/08 02:27:40;;;;;;;18.70;16.70;;;;;;;9.05;80.25;99779.09;5074098;28;20219;-69
2023/04/08 02:30:09;;;;;;;19.77;17.17;;;;;;;9.00;80.66;99771.72;5072269;28;20203;-69
2023/04/08 02:32:37;;;;;;;21.23;17.93;;;;;;;8.98;81.44;99764.91;5073917;28;20192;-69
2023/04/08 02:35:06;;;;;;;19.97;15.47;;;;;;;9.01;81.44;99778.66;5074199;28;20219;-70
2023/04/08 02:37:33;;;;;;;21.70;16.20;;;;;;;9.05;81.72;99782.59;5073791;28;20321;-69
2023/04/08 02:40:00;;;;;;;21.57;16.17;;;;;;;8.97;81.94;99779.19;5074042;28;20188;-70
2023/04/08 02:42:27;;;;;;;19.73;17.73;;;;;;;8.99;82.86;99777.19;5072813;28;20219;-70
2023/04/08 02:44:54;;;;;;;18.40;15.93;;;;;;;9.04;82.29;99772.16;5073556;28;20254;-70
2023/04/08 02:47:21;;;;;;;18.40;16.27;;;;;;;9.12;82.18;99782.69;5073654;28;20199;-70
2023/04/08 02:49:47;;;;;;;17.83;15.87;;;;;;;9.11;82.59;99779.22;5073972;28;20723;-70
2023/04/08 02:52:15;;;;;;;21.57;16.23;;;;;;;9.14;82.89;99775.38;5073786;28;20252;-72
2023/04/08 02:54:42;;;;;;;17.30;15.50;;;;;;;9.17;81.86;99780.31;5073685;28;20199;-72
2023/04/08 02:57:09;;;;;;;17.63;15.93;;;;;;;9.15;81.54;99785.00;5071169;28;20204;-71
2023/04/08 02:59:37;;;;;;;18.37;16.50;;;;;;;9.08;82.11;99781.41;5073348;28;20253;-71
2023/04/08 03:02:04;;;;;;;18.67;16.63;;;;;;;8.99;83.04;99793.09;5073323;28;20293;-71
2023/04/08 03:04:31;;;;;;;21.67;17.20;;;;;;;9.14;83.02;99796.56;5073558;28;20199;-70
2023/04/08 03:06:57;;;;;;;19.83;17.80;;;;;;;9.24;82.47;99802.47;5073057;28;20192;-71
2023/04/08 03:09:25;;;;;;;21.13;17.07;;;;;;;9.07;83.27;99800.97;5073160;28;20215;-71
2023/04/08 03:11:53;;;;;;;22.43;18.97;;;;;;;9.02;84.10;99792.69;5073449;28;20245;-70
2023/04/08 03:14:20;;;;;;;23.80;17.57;;;;;;;9.07;84.18;99811.56;5073621;28;20269;-70
2023/04/08 03:16:47;;;;;;;18.30;16.13;;;;;;;9.01;85.04;99793.72;5072888;28;20250;-69
2023/04/08 03:19:14;;;;;;;19.63;16.03;;;;;;;9.03;84.48;99802.31;5073279;28;20242;-69
2023/04/08 03:21:41;;;;;;;20.20;17.40;;;;;;;9.11;85.18;99810.19;5073324;28;20228;-70
2023/04/08 03:24:07;;;;;;;21.57;17.27;;;;;;;9.11;84.52;99796.94;5072860;28;20195;-70
2023/04/08 03:26:35;;;;;;;19.73;17.70;;;;;;;9.15;84.98;99808.84;5070051;28;20674;-70
2023/04/08 03:29:02;;;;;;;20.60;17.77;;;;;;;9.22;84.93;99799.16;5073208;28;20288;-70
2023/04/08 03:31:29;;;;;;;22.27;17.13;;;;;;;9.15;84.55;99792.94;5072981;28;20257;-71
2023/04/08 03:33:55;;;;;;;20.27;18.10;;;;;;;9.11;85.02;99802.25;5072633;28;20253;-72
2023/04/08 03:36:22;;;;;;;22.03;17.17;;;;;;;9.12;85.08;99809.19;5071770;28;20661;-71
2023/04/08 03:38:49;;;;;;;19.50;17.57;;;;;;;9.14;84.74;99809.81;5072899;28;20196;-71
2023/04/08 03:41:15;;;;;;;20.33;18.10;;;;;;;8.97;85.89;99797.72;5071999;28;20216;-71
2023/04/08 03:43:44;;;;;;;20.50;17.17;;;;;;;8.98;86.51;99805.50;5070942;28;20626;-71
2023/04/08 03:46:11;;;;;;;23.10;18.97;;;;;;;8.96;86.55;99811.97;5072675;28;20192;-70
2023/04/08 03:48:37;;;;;;;23.37;18.13;;;;;;;9.06;86.80;99799.28;5072411;28;20665;-70
2023/04/08 03:51:04;;;;;;;20.17;18.07;;;;;;;8.92;87.30;99805.38;5072583;28;20257;-70
2023/04/08 03:53:31;;;;;;;19.90;17.90;;;;;;;8.89;85.95;99798.63;5072604;28;20253;-70
2023/04/08 03:55:58;;;;;;;19.70;17.70;;;;;;;9.01;85.97;99817.56;5072174;28;20245;-72
2023/04/08 03:58:25;;;;;;;20.60;17.17;;;;;;;8.97;86.26;99817.09;5072259;28;20615;-71
2023/04/08 04:00:53;;;;;;;25.77;18.50;;;;;;;8.85;86.05;99821.16;5072284;28;20227;-70
2023/04/08 04:03:20;;;;;;;20.57;18.27;;;;;;;8.94;86.86;99816.66;5072036;28;20245;-71
2023/04/08 04:05:47;;;;;;;30.30;24.13;;;;;;;8.95;86.87;99823.59;5072409;28;20269;-71
2023/04/08 04:08:13;;;;;;;22.30;19.03;;;;;;;9.02;86.55;99813.91;5072003;28;20196;-71
2023/04/08 04:10:40;;;;;;;19.87;17.67;;;;;;;9.06;86.13;99825.78;5071927;28;20200;-72
2023/04/08 04:13:07;;;;;;;21.83;17.37;;;;;;;9.07;86.53;99819.50;5056739;28;20670;-71
2023/04/08 04:15:33;;;;;;;33.03;24.63;;;;;;;8.86;86.58;99830.75;5052446;28;20246;-72
2023/04/08 04:18:01;;;;;;;26.80;21.83;;;;;;;8.90;87.30;99832.03;5051855;28;20254;-72
2023/04/08 04:20:29;;;;;;;25.97;18.87;;;;;;;8.59;88.32;99833.09;5052046;28;20184;-72
2023/04/08 04:22:55;;;;;;;26.00;20.00;;;;;;;8.73;88.57;99834.97;5051956;28;20608;-73
2023/04/08 04:25:22;;;;;;;29.73;22.33;;;;;;;8.80;88.04;99833.28;5056464;28;20623;-72
2023/04/08 04:27:49;;;;;;;24.43;20.47;;;;;;;8.68;88.22;99835.53;5072096;28;20277;-73
2023/04/08 04:30:18;;;;;;;21.23;18.93;;;;;;;8.73;88.58;99840.28;5071713;28;20192;-74
2023/04/08 04:32:45;;;;;;;25.23;19.93;;;;;;;8.82;89.14;99823.34;5071467;28;20645;-73
2023/04/08 04:35:13;;;;;;;27.07;20.43;;;;;;;8.91;88.27;99838.97;5071647;28;20196;-73
2023/04/08 04:37:40;;;;;;;24.23;20.07;;;;;;;8.93;87.50;99833.50;5071440;28;20546;-72
2023/04/08 04:40:07;;;;;;;30.57;23.80;;;;;;;9.01;88.13;99836.09;5071545;28;20203;-73
2023/04/08 04:42:34;;;;;;;29.67;23.00;;;;;;;9.08;87.14;99834.41;5069660;28;20276;-71
2023/04/08 04:45:01;;;;;;;21.47;19.17;;;;;;;9.08;87.53;99829.94;5071777;28;20199;-71
2023/04/08 04:47:28;;;;;;;26.77;21.07;;;;;;;9.08;88.24;99834.41;5071718;28;20191;-71
2023/04/08 04:49:54;;;;;;;32.00;23.87;;;;;;;9.23;87.30;99833.44;5070790;28;20188;-71
2023/04/08 04:52:22;;;;;;;24.60;20.67;;;;;;;9.14;87.93;99838.97;5071039;28;20684;-71
2023/04/08 04:54:49;;;;;;;25.87;20.73;;;;;;;9.24;87.61;99843.03;5071746;28;20188;-70
2023/04/08 04:57:16;;;;;;;25.00;20.53;;;;;;;9.18;87.34;99845.56;5071516;28;20192;-70
2023/04/08 04:59:42;;;;;;;30.93;20.60;;;;;;;9.29;87.00;99837.19;5071325;28;20664;-69
2023/04/08 05:02:09;;;;;;;31.77;20.20;;;;;;;9.35;87.98;99841.78;5071097;28;20646;-70
2023/04/08 05:04:36;;;;;;;30.80;21.60;;;;;;;9.42;86.49;99843.53;5071512;28;20199;-70
2023/04/08 05:07:03;;;;;;;34.40;23.17;;;;;;;9.49;87.05;99838.34;5074702;28;20200;-72
2023/04/08 05:09:31;;;;;;;30.47;22.87;;;;;;;9.55;87.46;99849.03;5075159;28;20188;-71
2023/04/08 05:11:57;;;;;;;30.00;22.90;;;;;;;9.68;87.36;99843.13;5073437;28;20199;-72
2023/04/08 05:14:24;;;;;;;47.47;31.23;;;;;;;9.67;85.92;99854.72;5074429;28;20187;-71
2023/04/08 05:16:51;;;;;;;32.97;27.17;;;;;;;9.66;86.53;99856.56;5074998;28;20669;-71
2023/04/08 05:19:18;;;;;;;33.80;22.97;;;;;;;9.68;86.23;99848.44;5075538;28;20195;-71
2023/04/08 05:21:45;;;;;;;29.70;23.23;;;;;;;9.81;85.62;99848.63;5075694;28;20216;-72
2023/04/08 05:24:11;;;;;;;35.17;22.50;;;;;;;9.91;85.24;99859.78;5074974;28;20656;-71
2023/04/08 05:26:42;;;;;;;34.10;24.20;;;;;;;9.97;85.69;99862.50;5074942;28;20191;-70
2023/04/08 05:29:09;;;;;;;33.80;23.13;;;;;;;10.03;85.67;99866.28;5075388;28;20224;-70
2023/04/08 05:31:36;;;;;;;37.60;24.50;;;;;;;10.13;84.84;99864.22;5074974;28;20196;-70
2023/04/08 05:34:06;;;;;;;29.93;23.10;;;;;;;10.20;84.06;99871.25;5075177;28;20464;-70
2023/04/08 05:36:32;;;;;;;31.87;23.20;;;;;;;10.29;83.42;99869.28;5075074;28;20195;-66
2023/04/08 05:38:59;;;;;;;30.43;24.50;;;;;;;10.38;82.97;99873.53;5075059;28;20197;-70
2023/04/08 05:41:26;;;;;;;7.37;6.70;;;;;;;10.78;91.00;99864.97;5074078;28;20215;-68
2023/04/08 05:43:54;;;;;;;40.33;25.83;;;;;;;11.35;82.69;99878.22;5069747;28;20197;-71
2023/04/08 05:46:21;;;;;;;35.53;23.57;;;;;;;11.35;80.45;99883.56;5073865;28;20683;-70
2023/04/08 05:48:47;;;;;;;33.43;22.20;;;;;;;11.32;80.07;99874.13;5073843;28;20245;-69
2023/04/08 05:51:16;;;;;;;32.53;23.63;;;;;;;11.43;79.21;99870.91;5074235;28;20190;-70
2023/04/08 05:53:44;;;;;;;31.20;24.10;;;;;;;11.42;77.59;99885.25;5073917;28;20205;-71
2023/04/08 05:56:11;;;;;;;39.77;25.20;;;;;;;11.27;77.75;99881.81;5073771;28;20199;-73
2023/04/08 05:58:38;;;;;;;37.03;23.47;;;;;;;11.14;79.50;99870.28;5073890;28;20243;-69
2023/04/08 06:01:06;;;;;;;34.53;24.30;;;;;;;11.11;78.87;99878.63;5074296;28;20200;-73
2023/04/08 06:03:33;;;;;;;37.27;25.17;;;;;;;11.22;79.68;99878.13;5074367;28;20289;-75
2023/04/08 06:05:59;;;;;;;32.20;24.30;;;;;;;11.42;79.24;99879.94;5072943;28;20264;-77
2023/04/08 06:08:26;;;;;;;35.87;23.73;;;;;;;11.59;77.89;99875.97;5072984;28;20663;-75
2023/04/08 06:10:53;;;;;;;34.43;24.10;;;;;;;11.70;77.58;99886.13;5073571;28;20250;-71
2023/04/08 06:13:20;;;;;;;37.03;24.17;;;;;;;11.61;76.79;99878.47;5070858;28;20267;-72
2023/04/08 06:15:48;;;;;;;15.13;8.47;;;;;;;11.71;82.65;99863.81;5074193;28;20190;-68
2023/04/08 06:18:16;;;;;;;34.93;25.37;;;;;;;12.17;77.66;99888.88;5072750;28;20233;-75
2023/04/08 06:20:43;;;;;;;28.93;23.77;;;;;;;12.33;74.71;99888.56;5073194;28;20194;-78
2023/04/08 06:23:10;;;;;;;33.50;22.77;;;;;;;12.51;75.17;99891.53;5073737;28;20771;-76
2023/04/08 06:25:37;;;;;;;33.13;23.50;;;;;;;12.70;72.57;99901.44;5074059;28;20198;-81
2023/04/08 06:28:03;;;;;;;35.03;23.00;;;;;;;12.89;72.82;99894.50;5073488;28;20267;-77
2023/04/08 06:30:30;;;;;;;31.47;22.63;;;;;;;13.08;70.76;99897.28;5073470;28;20203;-77
2023/04/08 06:32:57;;;;;;;28.93;22.90;;;;;;;13.22;69.39;99904.28;5074046;28;20202;-75
2023/04/08 06:35:26;;;;;;;29.60;21.77;;;;;;;13.45;68.52;99899.38;5073562;28;20741;-74
2023/04/08 06:37:53;;;;;;;35.10;23.23;;;;;;;13.55;68.19;99902.47;5073781;28;20750;-73
2023/04/08 06:40:20;;;;;;;30.17;23.07;;;;;;;13.45;68.24;99899.38;5073670;28;20199;-70
2023/04/08 06:42:47;;;;;;;29.87;22.23;;;;;;;13.64;68.72;99898.56;5071907;28;20230;-69
2023/04/08 06:45:14;;;;;;;24.80;20.70;;;;;;;13.79;67.99;99885.81;5073142;28;20246;-71
2023/04/08 06:47:41;;;;;;;35.67;22.77;;;;;;;14.12;66.91;99907.97;5072521;28;20611;-69
2023/04/08 06:50:08;;;;;;;27.83;20.63;;;;;;;14.45;64.89;99911.41;5070132;28;20640;-72
2023/04/08 06:52:36;;;;;;;30.37;22.83;;;;;;;14.63;63.12;99918.75;5052936;28;20200;-75
2023/04/08 06:55:03;;;;;;;24.50;20.83;;;;;;;14.60;62.50;99917.31;5052615;28;20197;-71
2023/04/08 06:57:30;;;;;;;29.73;22.13;;;;;;;14.85;63.13;99904.88;5054599;28;20235;-73
2023/04/08 06:59:56;;;;;;;34.13;23.50;;;;;;;15.40;61.44;99904.13;5073178;28;20234;-72
2023/04/08 07:02:23;;;;;;;27.17;21.87;;;;;;;15.75;59.18;99891.91;5071947;28;20228;-72
2023/04/08 07:04:50;;;;;;;30.70;21.00;;;;;;;16.49;57.88;99904.41;5071149;28;20204;-73
2023/04/08 07:07:17;;;;;;;25.10;19.30;;;;;;;17.22;54.74;99919.31;5071518;28;20188;-73
2023/04/08 07:09:45;;;;;;;26.20;19.93;;;;;;;17.68;52.63;99916.81;5071621;28;20204;-73
2023/04/08 07:12:12;;;;;;;22.07;19.43;;;;;;;18.22;49.36;99908.41;5071097;28;20279;-73
2023/04/08 07:14:39;;;;;;;22.23;18.73;;;;;;;18.64;48.07;99902.66;5072595;28;20196;-73
2023/04/08 07:17:06;;;;;;;32.63;19.40;;;;;;;18.84;46.71;99900.38;5073326;28;20194;-73
2023/04/08 07:19:33;;;;;;;26.33;19.73;;;;;;;18.90;45.53;99879.72;5073157;28;20200;-73
2023/04/08 07:21:59;;;;;;;24.17;19.17;;;;;;;18.50;46.89;99889.69;5070965;28;20224;-72
2023/04/08 07:24:26;;;;;;;23.87;19.80;;;;;;;18.78;47.36;99897.81;5072361;28;20189;-69
2023/04/08 07:26:55;;;;;;;21.90;16.60;;;;;;;19.05;46.50;99898.88;5072553;28;20253;-69
2023/04/08 07:29:22;;;;;;;24.80;19.07;;;;;;;19.54;45.92;99898.19;5072470;28;20196;-69
2023/04/08 07:31:49;;;;;;;27.03;19.27;;;;;;;19.65;44.16;99889.22;5072376;28;20203;-74
2023/04/08 07:34:16;;;;;;;40.53;19.93;;;;;;;19.46;44.70;99896.72;5072050;28;20208;-73
2023/04/08 07:36:42;;;;;;;24.03;18.87;;;;;;;19.31;43.76;99903.69;5071956;28;20616;-75
2023/04/08 07:39:09;;;;;;;22.10;19.57;;;;;;;19.26;43.52;99896.34;5071850;28;20617;-73
2023/04/08 07:41:36;;;;;;;27.63;19.53;;;;;;;19.04;43.72;99889.16;5071446;28;20246;-75
2023/04/08 07:44:04;;;;;;;23.93;18.60;;;;;;;19.39;44.31;99890.66;5067763;28;20717;-80
2023/04/08 07:46:32;;;;;;;24.17;18.63;;;;;;;19.21;44.70;99884.63;5071617;28;20286;-75
2023/04/08 07:48:59;;;;;;;25.53;20.53;;;;;;;19.55;43.15;99892.53;5071090;28;20205;-74
2023/04/08 07:51:26;;;;;;;22.30;18.33;;;;;;;19.65;43.11;99883.81;5071822;28;20192;-76
2023/04/08 07:53:53;;;;;;;19.97;17.87;;;;;;;19.80;42.88;99875.94;5071224;28;20196;-72
2023/04/08 07:56:21;;;;;;;20.97;17.10;;;;;;;19.91;42.36;99889.38;5070590;28;20192;-74
2023/04/08 07:58:49;;;;;;;19.20;17.30;;;;;;;19.79;41.29;99891.31;5071896;28;20381;-74
2023/04/08 08:01:20;;;;;;;19.60;17.63;;;;;;;19.66;42.49;99888.13;5072112;28;20248;-73
2023/04/08 08:03:47;;;;;;;19.93;17.47;;;;;;;19.32;42.67;99889.19;5071836;28;20297;-74
2023/04/08 08:06:13;;;;;;;20.63;17.50;;;;;;;18.88;44.49;99889.94;5072014;28;20194;-75
2023/04/08 08:08:40;;;;;;;20.73;17.67;;;;;;;18.92;44.88;99896.47;5071959;28;20249;-82
2023/04/08 08:11:07;;;;;;;18.63;16.83;;;;;;;18.73;44.23;99900.38;5071839;28;20189;-74
2023/04/08 08:13:34;;;;;;;23.93;18.43;;;;;;;18.81;45.10;99892.75;5069597;28;20200;-73
2023/04/08 08:16:00;;;;;;;19.70;16.80;;;;;;;19.08;43.58;99895.72;5071766;28;20219;-78
2023/04/08 08:18:28;;;;;;;19.90;17.17;;;;;;;18.99;43.70;99899.84;5072000;28;20629;-74
2023/04/08 08:20:55;;;;;;;22.07;17.30;;;;;;;18.70;44.20;99899.00;5071873;28;20242;-73
2023/04/08 08:23:22;;;;;;;18.80;16.60;;;;;;;18.78;43.83;99887.06;5070056;28;20223;-73
2023/04/08 08:25:49;;;;;;;20.40;16.13;;;;;;;19.11;43.83;99884.47;5071791;28;20222;-72
2023/04/08 08:28:15;;;;;;;19.17;17.30;;;;;;;19.35;42.46;99886.81;5071925;28;20221;-73
2023/04/08 08:30:42;;;;;;;21.40;17.43;;;;;;;19.57;41.86;99893.09;5071780;28;20190;-73
2023/04/08 08:33:08;;;;;;;18.43;16.67;;;;;;;19.21;42.30;99887.31;5071948;28;20201;-73
2023/04/08 08:35:37;;;;;;;19.47;17.23;;;;;;;18.65;43.60;99887.31;5071780;28;20250;-72
2023/04/08 08:38:03;;;;;;;19.60;17.77;;;;;;;18.39;43.68;99877.09;5072011;28;20566;-72
2023/04/08 08:40:30;;;;;;;21.10;16.87;;;;;;;18.59;44.88;99885.56;5071175;28;20265;-71
2023/04/08 08:42:58;;;;;;;19.30;17.27;;;;;;;19.07;42.96;99876.03;5068959;28;20212;-70
2023/04/08 08:45:24;;;;;;;18.87;16.90;;;;;;;18.72;42.73;99883.44;5071026;28;20245;-71
2023/04/08 08:47:51;;;;;;;22.60;16.70;;;;;;;18.65;42.51;99881.91;5071469;28;20201;-71
2023/04/08 08:50:18;;;;;;;18.27;16.37;;;;;;;18.90;42.75;99875.16;5071384;28;20192;-71
2023/04/08 08:52:50;;;;;;;19.70;17.63;;;;;;;19.21;42.18;99876.56;5071782;28;20258;-69
2023/04/08 08:55:19;;;;;;;24.30;21.23;;;;;;;19.07;42.86;99880.63;5071629;28;20286;-71
2023/04/08 08:57:47;;;;;;;18.83;16.80;;;;;;;19.45;41.98;99870.81;5071756;28;20251;-72
2023/04/08 09:00:15;;;;;;;24.53;17.47;;;;;;;19.64;41.72;99880.28;5071437;28;20290;-72
2023/04/08 09:02:41;;;;;;;21.77;16.90;;;;;;;19.80;41.00;99886.72;5071288;28;20222;-72
2023/04/08 09:05:09;;;;;;;18.50;15.60;;;;;;;19.93;39.31;99883.72;5071025;28;20230;-72
2023/04/08 09:07:39;;;;;;;20.93;18.33;;;;;;;19.63;40.12;99875.16;5071509;28;20200;-72
2023/04/08 09:10:09;;;;;;;19.13;17.13;;;;;;;19.40;41.02;99869.94;5071140;28;20195;-72
2023/04/08 09:12:53;;;;;;;22.07;17.30;;;;;;;18.95;41.87;99871.78;5065900;28;20280;-72
2023/04/08 09:15:21;;;;;;;18.83;16.70;;;;;;;18.89;41.80;99873.53;5051365;28;20273;-71
2023/04/08 09:17:47;;;;;;;18.53;16.80;;;;;;;18.63;42.26;99875.97;5051450;28;20290;-72
2023/04/08 09:20:14;;;;;;;20.97;18.07;;;;;;;18.76;42.89;99864.94;5051505;28;20193;-72
2023/04/08 09:22:57;;;;;;;16.83;15.20;;;;;;;18.78;40.88;99884.38;5051262;28;20236;-72
2023/04/08 09:25:26;;;;;;;15.77;14.37;;;;;;;18.59;40.26;99877.50;5055452;28;20663;-72
2023/04/08 09:27:53;;;;;;;15.87;14.57;;;;;;;18.64;40.39;99878.44;5071351;28;20224;-72
2023/04/08 09:30:24;;;;;;;14.83;13.57;;;;;;;18.37;40.55;99874.63;5070934;28;20637;-72
2023/04/08 09:32:51;;;;;;;16.77;14.67;;;;;;;18.40;41.28;99874.16;5071498;28;20253;-73
2023/04/08 09:35:19;;;;;;;19.10;15.53;;;;;;;18.36;41.60;99872.16;5071204;28;20254;-72
2023/04/08 09:37:46;;;;;;;16.23;14.83;;;;;;;18.43;41.81;99873.69;5071369;28;20197;-71
2023/04/08 09:40:14;;;;;;;20.60;16.13;;;;;;;18.51;42.13;99867.13;5071234;28;20228;-73
2023/04/08 09:42:45;;;;;;;20.50;15.33;;;;;;;18.73;41.71;99870.78;5068357;28;20208;-72
2023/04/08 09:45:13;;;;;;;18.40;14.73;;;;;;;18.62;42.05;99875.16;5071279;28;20196;-72
2023/04/08 09:47:51;;;;;;;18.00;16.13;;;;;;;18.68;42.09;99865.31;5071029;28;20287;-72
2023/04/08 09:50:21;;;;;;;16.67;14.90;;;;;;;18.94;41.94;99870.09;5070953;28;20191;-72
2023/04/08 09:52:53;;;;;;;17.60;15.80;;;;;;;18.95;40.34;99871.78;5072993;28;20197;-72
2023/04/08 09:55:22;;;;;;;15.77;14.27;;;;;;;18.67;40.24;99869.06;5074867;28;20185;-72
2023/04/08 09:57:55;;;;;;;14.73;13.43;;;;;;;18.46;40.96;99872.41;5074798;28;20192;-71
2023/04/08 10:00:27;;;;;;;15.57;13.53;;;;;;;18.36;40.79;99864.94;5074634;28;20194;-72
2023/04/08 10:02:56;;;;;;;14.57;13.17;;;;;;;18.19;41.17;99872.06;5075783;28;20208;-71
2023/04/08 10:05:25;;;;;;;14.93;13.50;;;;;;;18.09;41.57;99881.78;5074631;28;20199;-71
2023/04/08 10:07:52;;;;;;;14.23;12.83;;;;;;;18.11;41.13;99876.97;5074644;28;20190;-72
2023/04/08 10:10:20;;;;;;;14.67;13.47;;;;;;;18.32;40.79;99862.91;5074477;28;20253;-71
2023/04/08 10:12:46;;;;;;;17.47;14.70;;;;;;;18.56;41.14;99864.53;5067872;28;20200;-73
2023/04/08 10:15:25;;;;;;;17.13;14.93;;;;;;;18.77;41.07;99869.25;5054045;28;20659;-71
2023/04/08 10:17:53;;;;;;;16.20;14.60;;;;;;;18.88;41.09;99865.69;5054674;28;20185;-71
2023/04/08 10:20:42;;;;;;;16.07;14.43;;;;;;;19.05;40.98;99863.88;5054298;28;20197;-72
2023/04/08 10:23:10;;;;;;;18.07;16.10;;;;;;;18.84;41.17;99854.59;5054322;28;20224;-71
2023/04/08 10:25:37;;;;;;;16.67;14.97;;;;;;;18.73;42.19;99860.84;5060425;28;20188;-72
2023/04/08 10:28:25;;;;;;;17.33;15.63;;;;;;;18.58;43.10;99854.34;5074242;28;20290;-71
2023/04/08 10:30:55;;;;;;;16.50;14.87;;;;;;;18.80;42.71;99847.25;5074337;28;20182;-71
2023/04/08 10:33:24;;;;;;;16.23;14.67;;;;;;;18.83;42.08;99846.78;5073836;28;20196;-70
2023/04/08 10:35:54;;;;;;;15.57;14.27;;;;;;;18.61;42.31;99848.47;5074299;28;20254;-71
2023/04/08 10:38:21;;;;;;;17.83;16.13;;;;;;;18.64;42.53;99837.22;5074095;28;20245;-71
2023/04/08 10:40:48;;;;;;;16.77;15.07;;;;;;;18.68;42.11;99838.41;5073586;28;20196;-72
2023/04/08 10:43:15;;;;;;;17.07;15.20;;;;;;;18.83;41.97;99830.63;5072198;28;20215;-72
2023/04/08 10:45:43;;;;;;;16.60;15.00;;;;;;;18.78;42.74;99833.22;5072804;28;20201;-72
2023/04/08 10:48:17;;;;;;;22.63;16.40;;;;;;;18.92;41.99;99829.16;5073925;28;20188;-72
2023/04/08 10:50:44;;;;;;;17.13;15.53;;;;;;;18.98;41.70;99817.41;5073594;28;20199;-72
2023/04/08 10:53:11;;;;;;;18.03;16.23;;;;;;;19.06;41.46;99817.03;5073631;28;20196;-72
2023/04/08 10:55:38;;;;;;;17.97;16.27;;;;;;;19.14;41.15;99812.06;5073663;28;20193;-72
2023/04/08 10:58:09;;;;;;;17.00;15.27;;;;;;;19.26;41.05;99810.16;5073729;28;20194;-72
2023/04/08 11:00:37;;;;;;;16.50;15.00;;;;;;;19.22;41.02;99818.91;5073570;28;20195;-72
2023/04/08 11:03:05;;;;;;;16.90;15.37;;;;;;;19.28;41.00;99796.44;5072956;28;20220;-72
2023/04/08 11:05:35;;;;;;;18.07;16.37;;;;;;;19.36;40.56;99810.31;5073374;28;20284;-71
2023/04/08 11:08:02;;;;;;;17.53;15.73;;;;;;;19.39;41.08;99803.59;5073539;28;20204;-69
2023/04/08 11:10:30;;;;;;;17.73;15.90;;;;;;;19.53;41.10;99807.63;5073489;28;20192;-69
2023/04/08 11:12:57;;;;;;;16.53;14.87;;;;;;;19.41;40.93;99806.88;5065308;28;20224;-70
2023/04/08 11:15:25;;;;;;;16.47;14.90;;;;;;;19.48;40.63;99807.53;5053462;28;20256;-71
2023/04/08 11:17:53;;;;;;;15.70;14.33;;;;;;;19.54;40.28;99801.16;5053073;28;20660;-71
2023/04/08 11:20:20;;;;;;;18.13;14.93;;;;;;;19.33;41.15;99791.97;5053363;28;20287;-71
2023/04/08 11:22:50;;;;;;;11.60;9.60;;;;;;;19.09;44.20;99786.91;5053063;28;20255;-67
2023/04/08 11:25:17;;;;;;;10.07;9.27;;;;;;;19.24;47.33;99779.13;5056659;28;20190;-67